createdAt,value
2018-02-20T00:02:05.949Z,20.60
2018-02-20T00:04:32.168Z,19.93
2018-02-20T00:06:59.108Z,20.37
2018-02-20T00:09:26.068Z,22.03
2018-02-20T00:11:52.996Z,18.87
2018-02-20T00:14:19.957Z,19.20
2018-02-20T00:16:46.892Z,21.47
2018-02-20T00:19:13.891Z,19.80
2018-02-20T00:21:40.463Z,21.23
2018-02-20T00:24:06.685Z,20.30
2018-02-20T00:26:32.891Z,21.23
2018-02-20T00:28:59.125Z,19.30
2018-02-20T00:31:25.308Z,21.80
2018-02-20T00:33:51.524Z,20.90
2018-02-20T00:36:18.512Z,20.77
2018-02-20T00:38:44.732Z,22.33
2018-02-20T00:41:10.920Z,20.67
2018-02-20T00:43:37.888Z,21.30
2018-02-20T00:46:04.072Z,19.90
2018-02-20T00:48:31.042Z,21.77
2018-02-20T00:50:57.975Z,18.17
2018-02-20T00:53:24.197Z,19.10
2018-02-20T00:55:50.844Z,21.07
2018-02-20T00:58:17.069Z,21.70
2018-02-20T01:00:43.528Z,20.90
2018-02-20T01:03:10.485Z,20.67
2018-02-20T01:05:36.671Z,19.03
2018-02-20T01:08:03.635Z,20.10
2018-02-20T01:10:29.853Z,19.50
2018-02-20T01:12:56.068Z,19.90
2018-02-20T01:15:22.251Z,20.83
2018-02-20T01:17:48.495Z,20.47
2018-02-20T01:20:14.683Z,20.97
2018-02-20T01:22:41.608Z,20.80
2018-02-20T01:25:07.936Z,21.07
2018-02-20T01:27:34.156Z,21.40
2018-02-20T01:30:00.344Z,20.10
2018-02-20T01:32:26.537Z,20.87
2018-02-20T01:34:52.753Z,19.80
2018-02-20T01:37:19.410Z,22.27
2018-02-20T01:39:46.368Z,18.73
2018-02-20T01:42:13.302Z,19.97
2018-02-20T01:44:40.270Z,21.53
2018-02-20T01:47:06.455Z,19.63
2018-02-20T01:49:32.677Z,21.47
2018-02-20T01:51:58.877Z,22.50
2018-02-20T01:54:25.105Z,20.40
2018-02-20T01:56:51.294Z,20.40
2018-02-20T01:59:18.259Z,20.27
2018-02-20T02:01:44.456Z,21.40
2018-02-20T02:04:10.864Z,20.90
2018-02-20T02:06:37.073Z,18.80
2018-02-20T02:09:03.319Z,21.60
2018-02-20T02:11:29.546Z,22.30
2018-02-20T02:13:56.060Z,20.90
2018-02-20T02:16:22.834Z,23.47
2018-02-20T02:18:49.834Z,25.00
2018-02-20T02:21:16.143Z,21.23
2018-02-20T02:23:42.363Z,22.87
2018-02-20T02:26:09.320Z,23.43
2018-02-20T02:28:35.540Z,22.20
2018-02-20T02:31:01.824Z,22.67
2018-02-20T02:33:28.013Z,22.90
2018-02-20T02:35:54.968Z,21.27
2018-02-20T02:38:21.169Z,23.63
2018-02-20T02:40:47.396Z,20.73
2018-02-20T02:43:14.328Z,23.10
2018-02-20T02:45:40.549Z,23.57
2018-02-20T02:48:06.746Z,23.20
2018-02-20T02:50:32.967Z,24.13
2018-02-20T02:52:59.160Z,22.80
2018-02-20T02:55:25.380Z,23.07
2018-02-20T02:57:51.572Z,24.50
2018-02-20T03:00:17.802Z,22.10
2018-02-20T03:02:43.994Z,22.33
2018-02-20T03:05:10.952Z,23.63
2018-02-20T03:07:37.144Z,22.83
2018-02-20T03:10:03.448Z,22.97
2018-02-20T03:12:29.635Z,23.73
2018-02-20T03:14:56.610Z,21.90
2018-02-20T03:17:22.803Z,21.63
2018-02-20T03:19:49.796Z,20.97
2018-02-20T03:22:15.988Z,20.87
2018-02-20T03:24:42.216Z,21.07
2018-02-20T03:27:08.403Z,20.57
2018-02-20T03:29:34.624Z,22.30
2018-02-20T03:32:00.808Z,20.57
2018-02-20T03:34:27.028Z,21.03
2018-02-20T03:36:53.956Z,22.07
2018-02-20T03:39:20.921Z,19.23
2018-02-20T03:41:47.118Z,20.57
2018-02-20T03:44:14.060Z,22.03
2018-02-20T03:46:40.288Z,21.47
2018-02-20T03:49:06.479Z,17.77
2018-02-20T03:51:32.696Z,21.93
2018-02-20T03:53:58.888Z,23.00
2018-02-20T03:56:25.114Z,23.60
2018-02-20T03:58:51.304Z,19.70
2018-02-20T04:01:17.524Z,20.20
2018-02-20T04:03:43.780Z,20.87
2018-02-20T04:06:10.001Z,20.80
2018-02-20T04:08:36.205Z,18.13
2018-02-20T04:11:02.432Z,22.00
2018-02-20T04:13:28.621Z,22.67
2018-02-20T04:15:54.925Z,21.37
2018-02-20T04:18:21.536Z,21.00
2018-02-20T04:20:47.766Z,23.77
2018-02-20T04:23:14.057Z,17.60
2018-02-20T04:25:41.016Z,21.40
2018-02-20T04:28:07.945Z,20.80
2018-02-20T04:30:34.196Z,24.07
2018-02-20T04:33:00.380Z,20.77
2018-02-20T04:35:26.796Z,20.00
2018-02-20T04:37:52.990Z,18.33
2018-02-20T04:40:19.176Z,18.77
2018-02-20T04:42:45.409Z,20.90
2018-02-20T04:45:11.600Z,19.60
2018-02-20T04:47:37.811Z,21.40
2018-02-20T04:50:04.001Z,21.17
2018-02-20T04:52:30.224Z,23.07
2018-02-20T04:54:56.420Z,18.27
2018-02-20T04:57:22.636Z,19.27
2018-02-20T04:59:49.700Z,21.10
2018-02-20T05:02:15.924Z,20.63
2018-02-20T05:04:42.131Z,22.47
2018-02-20T05:07:08.399Z,22.70
2018-02-20T05:09:34.588Z,22.80
2018-02-20T05:12:00.811Z,24.80
2018-02-20T05:14:27.000Z,22.93
2018-02-20T05:16:53.512Z,21.87
2018-02-20T05:19:19.762Z,22.97
2018-02-20T05:21:45.951Z,22.10
2018-02-20T05:24:12.168Z,22.80
2018-02-20T05:26:39.023Z,19.33
2018-02-20T05:29:05.217Z,23.10
2018-02-20T05:31:32.152Z,20.13
2018-02-20T05:33:59.116Z,22.97
2018-02-20T05:36:26.060Z,23.40
2018-02-20T05:38:53.024Z,20.03
2018-02-20T05:41:19.221Z,22.70
2018-02-20T05:43:46.197Z,19.83
2018-02-20T05:46:12.387Z,22.33
2018-02-20T05:48:38.607Z,20.23
2018-02-20T05:51:04.801Z,22.33
2018-02-20T05:53:31.057Z,21.70
2018-02-20T05:55:57.256Z,20.97
2018-02-20T05:58:23.475Z,20.97
2018-02-20T06:00:49.665Z,24.47
2018-02-20T06:03:15.896Z,22.20
2018-02-20T06:05:42.828Z,22.77
2018-02-20T06:08:09.062Z,22.00
2018-02-20T06:10:35.260Z,21.30
2018-02-20T06:13:01.472Z,21.03
2018-02-20T06:15:27.691Z,22.50
2018-02-20T06:17:53.896Z,21.27
2018-02-20T06:20:20.896Z,22.40
2018-02-20T06:22:47.088Z,19.87
2018-02-20T06:25:13.308Z,20.60
2018-02-20T06:27:40.229Z,19.57
2018-02-20T06:30:06.448Z,22.03
2018-02-20T06:32:32.631Z,24.33
2018-02-20T06:34:58.855Z,22.53
2018-02-20T06:37:25.052Z,25.00
2018-02-20T06:39:52.036Z,22.27
2018-02-20T06:42:18.228Z,23.33
2018-02-20T06:44:45.156Z,22.37
2018-02-20T06:47:11.372Z,19.93
2018-02-20T06:49:37.559Z,21.73
2018-02-20T06:52:03.775Z,21.00
2018-02-20T06:54:30.712Z,20.30
2018-02-20T06:56:57.668Z,20.40
2018-02-20T06:59:23.869Z,20.57
2018-02-20T07:01:50.088Z,21.50
2018-02-20T07:04:16.275Z,19.83
2018-02-20T07:06:42.556Z,21.70
2018-02-20T07:09:08.740Z,22.27
2018-02-20T07:11:34.961Z,21.00
2018-02-20T07:14:01.156Z,20.80
2018-02-20T07:16:28.140Z,23.00
2018-02-20T07:18:54.360Z,20.90
2018-02-20T07:21:20.576Z,19.83
2018-02-20T07:23:46.764Z,19.60
2018-02-20T07:26:12.980Z,18.50
2018-02-20T07:28:39.167Z,19.30
2018-02-20T07:31:05.380Z,19.20
2018-02-20T07:33:32.313Z,20.87
2018-02-20T07:35:59.252Z,21.47
2018-02-20T07:38:25.514Z,20.40
2018-02-20T07:40:52.457Z,21.07
2018-02-20T07:43:18.649Z,19.27
2018-02-20T07:45:44.868Z,20.03
2018-02-20T07:48:11.060Z,19.90
2018-02-20T07:50:37.309Z,20.00
2018-02-20T07:53:03.516Z,21.50
2018-02-20T07:55:29.712Z,19.63
2018-02-20T07:57:56.671Z,19.87
2018-02-20T08:00:22.884Z,20.70
2018-02-20T08:02:49.840Z,21.40
2018-02-20T08:05:16.769Z,19.07
2018-02-20T08:07:42.988Z,21.10
2018-02-20T08:10:09.189Z,19.73
2018-02-20T08:12:35.480Z,21.40
2018-02-20T08:15:01.672Z,20.83
2018-02-20T08:17:28.685Z,21.53
2018-02-20T08:19:54.873Z,20.03
2018-02-20T08:22:21.827Z,22.40
2018-02-20T08:24:48.020Z,22.13
2018-02-20T08:27:14.245Z,21.30
2018-02-20T08:29:40.495Z,22.37
2018-02-20T08:32:06.692Z,20.20
2018-02-20T08:34:32.880Z,20.70
2018-02-20T08:36:59.092Z,20.57
2018-02-20T08:39:26.021Z,21.53
2018-02-20T08:41:52.276Z,22.20
2018-02-20T08:44:19.204Z,20.97
2018-02-20T08:46:46.133Z,23.70
2018-02-20T08:49:12.527Z,24.80
2018-02-20T08:51:38.860Z,16.77
2018-02-20T08:54:05.114Z,23.83
2018-02-20T08:56:31.296Z,22.37
2018-02-20T08:58:57.516Z,21.47
2018-02-20T09:01:24.440Z,27.50
2018-02-20T09:03:50.668Z,24.80
2018-02-20T09:06:16.865Z,25.30
2018-02-20T09:08:43.085Z,25.73
2018-02-20T09:11:09.268Z,25.63
2018-02-20T09:13:36.288Z,26.13
2018-02-20T09:16:02.476Z,25.07
2018-02-20T09:18:28.692Z,22.80
2018-02-20T09:20:54.914Z,25.77
2018-02-20T09:23:21.135Z,25.03
2018-02-20T09:25:48.072Z,27.30
2018-02-20T09:28:15.033Z,25.57
2018-02-20T09:30:41.956Z,28.20
2018-02-20T09:33:08.927Z,25.27
2018-02-20T09:35:35.125Z,25.03
2018-02-20T09:38:01.372Z,24.70
2018-02-20T09:40:28.300Z,28.90
2018-02-20T09:42:54.543Z,23.33
2018-02-20T09:45:21.467Z,25.53
2018-02-20T09:47:47.663Z,20.23
2018-02-20T09:50:13.953Z,30.40
2018-02-20T09:52:40.175Z,28.27
2018-02-20T09:55:07.137Z,30.10
2018-02-20T09:57:33.384Z,27.40
2018-02-20T09:59:59.597Z,30.37
2018-02-20T10:02:26.524Z,27.37
2018-02-20T10:04:53.477Z,27.40
2018-02-20T10:07:20.431Z,28.03
2018-02-20T10:09:47.392Z,26.17
2018-02-20T10:12:13.609Z,31.07
2018-02-20T10:14:40.538Z,31.07
2018-02-20T10:17:07.495Z,30.93
2018-02-20T10:19:34.512Z,29.20
2018-02-20T10:22:00.728Z,29.80
2018-02-20T10:24:26.924Z,31.97
2018-02-20T10:26:53.141Z,28.77
2018-02-20T10:29:19.336Z,27.60
2018-02-20T10:31:45.548Z,31.43
2018-02-20T10:34:11.749Z,28.43
2018-02-20T10:36:37.976Z,30.30
2018-02-20T10:39:04.212Z,28.20
2018-02-20T10:41:30.404Z,29.13
2018-02-20T10:43:57.352Z,29.20
2018-02-20T10:46:23.548Z,26.70
2018-02-20T10:48:49.764Z,28.97
2018-02-20T10:51:15.963Z,29.40
2018-02-20T10:53:42.179Z,29.07
2018-02-20T10:56:08.438Z,29.67
2018-02-20T10:58:34.656Z,28.20
2018-02-20T11:01:00.848Z,30.37
2018-02-20T11:03:27.807Z,26.70
2018-02-20T11:05:54.064Z,31.93
2018-02-20T11:08:20.314Z,28.30
2018-02-20T11:10:46.509Z,33.43
2018-02-20T11:13:12.756Z,30.80
2018-02-20T11:15:38.945Z,21.50
2018-02-20T11:18:05.910Z,30.47
2018-02-20T11:20:32.133Z,32.40
2018-02-20T11:22:58.355Z,32.43
2018-02-20T11:25:24.540Z,29.70
2018-02-20T11:27:50.752Z,28.80
2018-02-20T11:30:16.936Z,31.37
2018-02-20T11:32:43.159Z,30.97
2018-02-20T11:35:10.088Z,29.30
2018-02-20T11:37:36.308Z,35.80
2018-02-20T11:40:02.508Z,34.00
2018-02-20T11:42:28.725Z,33.00
2018-02-20T11:44:55.155Z,30.20
2018-02-20T11:47:21.376Z,35.03
2018-02-20T11:49:47.556Z,37.63
2018-02-20T11:52:13.773Z,34.27
2018-02-20T11:54:39.961Z,37.67
2018-02-20T11:57:06.194Z,37.23
2018-02-20T11:59:32.454Z,33.60
2018-02-20T12:01:58.680Z,31.50
2018-02-20T12:04:24.877Z,32.77
2018-02-20T12:06:51.096Z,31.50
2018-02-20T12:09:17.297Z,33.23
2018-02-20T12:11:43.780Z,32.30
2018-02-20T12:14:10.001Z,34.53
2018-02-20T12:16:36.191Z,31.73
2018-02-20T12:19:03.204Z,33.30
2018-02-20T12:21:29.386Z,31.77
2018-02-20T12:23:56.344Z,36.17
2018-02-20T12:26:22.545Z,33.93
2018-02-20T12:28:49.500Z,35.70
2018-02-20T12:31:16.424Z,32.80
2018-02-20T12:33:42.635Z,27.53
2018-02-20T12:36:08.820Z,27.87
2018-02-20T12:38:35.000Z,30.27
2018-02-20T12:41:01.217Z,31.27
2018-02-20T12:43:27.404Z,28.13
2018-02-20T12:45:53.620Z,28.30
2018-02-20T12:48:20.553Z,29.50
2018-02-20T12:50:47.517Z,28.23
2018-02-20T12:53:13.707Z,30.17
2018-02-20T12:55:39.930Z,25.97
2018-02-20T12:58:06.129Z,27.27
2018-02-20T13:00:32.335Z,28.27
2018-02-20T13:02:58.537Z,26.53
2018-02-20T13:05:25.500Z,27.47
2018-02-20T13:07:51.721Z,28.77
2018-02-20T13:10:18.660Z,28.80
2018-02-20T13:12:44.903Z,25.50
2018-02-20T13:15:11.836Z,28.50
2018-02-20T13:17:38.796Z,22.90
2018-02-20T13:20:05.748Z,24.90
2018-02-20T13:22:31.968Z,26.37
2018-02-20T13:24:58.911Z,25.90
2018-02-20T13:27:25.883Z,24.57
2018-02-20T13:29:52.073Z,26.10
2018-02-20T13:32:18.264Z,23.00
2018-02-20T13:34:44.481Z,25.37
2018-02-20T13:37:10.663Z,27.07
2018-02-20T13:39:37.633Z,23.50
2018-02-20T13:42:03.823Z,25.80
2018-02-20T13:44:30.049Z,23.20
2018-02-20T13:46:56.238Z,25.67
2018-02-20T13:49:22.520Z,28.20
2018-02-20T13:51:49.452Z,26.27
2018-02-20T13:54:15.677Z,26.07
2018-02-20T13:56:41.883Z,24.00
2018-02-20T13:59:08.113Z,25.57
2018-02-20T14:01:34.300Z,25.97
2018-02-20T14:04:01.264Z,25.07
2018-02-20T14:06:27.456Z,28.10
2018-02-20T14:08:53.684Z,25.60
2018-02-20T14:11:19.876Z,26.60
2018-02-20T14:13:46.092Z,22.50
2018-02-20T14:16:12.324Z,25.23
2018-02-20T14:18:38.560Z,26.87
2018-02-20T14:21:04.836Z,25.80
2018-02-20T14:23:31.764Z,27.80
2018-02-20T14:25:57.980Z,26.53
2018-02-20T14:28:24.201Z,27.70
2018-02-20T14:30:50.394Z,28.87
2018-02-20T14:33:16.584Z,26.13
2018-02-20T14:35:42.800Z,26.63
2018-02-20T14:38:08.997Z,27.87
2018-02-20T14:40:35.213Z,27.37
2018-02-20T14:43:01.404Z,28.40
2018-02-20T14:45:27.621Z,31.10
2018-02-20T14:47:53.811Z,27.10
2018-02-20T14:50:20.024Z,28.93
2018-02-20T14:52:46.209Z,26.20
2018-02-20T14:55:12.433Z,26.23
2018-02-20T14:57:38.620Z,26.80
2018-02-20T15:00:04.840Z,25.90
2018-02-20T15:02:31.020Z,27.73
2018-02-20T15:04:57.316Z,26.30
2018-02-20T15:07:23.528Z,27.33
2018-02-20T15:09:49.714Z,24.70
2018-02-20T15:12:15.928Z,26.53
2018-02-20T15:14:42.116Z,27.40
2018-02-20T15:17:08.336Z,29.17
2018-02-20T15:19:34.559Z,28.90
2018-02-20T15:22:00.783Z,29.10
2018-02-20T15:24:27.708Z,29.73
2018-02-20T15:26:53.923Z,27.40
2018-02-20T15:29:20.117Z,29.60
2018-02-20T15:31:46.348Z,28.13
2018-02-20T15:34:12.544Z,26.80
2018-02-20T15:36:39.505Z,28.80
2018-02-20T15:39:05.698Z,26.20
2018-02-20T15:41:33.397Z,29.63
2018-02-20T15:43:59.588Z,27.30
2018-02-20T15:46:25.864Z,23.50
2018-02-20T15:48:52.060Z,25.37
2018-02-20T15:51:19.016Z,25.10
2018-02-20T15:53:45.940Z,28.20
2018-02-20T15:56:12.158Z,26.80
2018-02-20T15:58:38.404Z,28.87
2018-02-20T16:01:05.356Z,27.57
2018-02-20T16:03:32.289Z,27.07
2018-02-20T16:06:00.313Z,29.80
2018-02-20T16:08:26.538Z,29.10
2018-02-20T16:10:52.761Z,28.50
2018-02-20T16:13:18.957Z,26.70
2018-02-20T16:15:45.941Z,27.40
2018-02-20T16:18:12.141Z,28.40
2018-02-20T16:20:39.137Z,27.40
2018-02-20T16:23:05.320Z,29.50
2018-02-20T16:25:32.267Z,29.50
2018-02-20T16:27:59.228Z,29.90
2018-02-20T16:30:25.423Z,28.40
2018-02-20T16:32:52.416Z,29.57
2018-02-20T16:35:18.596Z,29.30
2018-02-20T16:37:44.820Z,30.10
2018-02-20T16:40:11.772Z,30.30
2018-02-20T16:42:38.411Z,30.07
2018-02-20T16:45:05.340Z,30.27
2018-02-20T16:47:31.541Z,30.27
2018-02-20T16:49:57.765Z,28.60
2018-02-20T16:52:23.972Z,30.10
2018-02-20T16:54:50.184Z,29.90
2018-02-20T16:57:17.116Z,29.70
2018-02-20T16:59:43.332Z,30.47
2018-02-20T17:02:09.590Z,33.40
2018-02-20T17:04:36.552Z,27.97
2018-02-20T17:07:03.004Z,29.10
2018-02-20T17:09:29.236Z,27.40
2018-02-20T17:11:55.444Z,38.47
2018-02-20T17:14:21.627Z,30.80
2018-02-20T17:16:48.588Z,29.10
2018-02-20T17:19:15.516Z,30.90
2018-02-20T17:21:41.805Z,29.20
2018-02-20T17:24:08.024Z,31.93
2018-02-20T17:26:34.245Z,29.37
2018-02-20T17:29:00.437Z,30.77
2018-02-20T17:31:26.658Z,35.47
2018-02-20T17:33:52.919Z,35.67
2018-02-20T17:36:19.873Z,42.30
2018-02-20T17:38:46.808Z,38.07
2018-02-20T17:41:13.776Z,32.60
2018-02-20T17:43:39.966Z,68.97
2018-02-20T17:46:06.190Z,31.70
2018-02-20T17:48:32.380Z,39.47
2018-02-20T17:50:58.604Z,35.90
2018-02-20T17:53:24.791Z,42.30
2018-02-20T17:55:51.820Z,106.30
2018-02-20T17:58:18.016Z,94.40
2018-02-20T18:00:44.253Z,36.77
2018-02-20T18:03:10.445Z,70.03
2018-02-20T18:05:37.008Z,60.27
2018-02-20T18:08:03.204Z,63.90
2018-02-20T18:10:30.165Z,60.40
2018-02-20T18:12:56.388Z,42.07
2018-02-20T18:15:22.600Z,39.53
2018-02-20T18:17:49.536Z,37.37
2018-02-20T18:20:15.785Z,38.27
2018-02-20T18:22:42.771Z,39.20
2018-02-20T18:25:08.961Z,38.77
2018-02-20T18:27:35.889Z,38.40
2018-02-20T18:30:02.857Z,37.27
2018-02-20T18:32:29.044Z,39.00
2018-02-20T18:34:55.321Z,38.60
2018-02-20T18:37:21.519Z,41.07
2018-02-20T18:39:47.740Z,37.77
2018-02-20T18:42:13.932Z,35.33
2018-02-20T18:44:40.212Z,40.60
2018-02-20T18:47:07.140Z,37.57
2018-02-20T18:49:33.385Z,37.57
2018-02-20T18:51:59.572Z,38.03
2018-02-20T18:54:25.792Z,36.80
2018-02-20T18:56:51.981Z,37.77
2018-02-20T18:59:18.941Z,36.63
2018-02-20T19:01:45.499Z,33.37
2018-02-20T19:04:11.721Z,37.10
2018-02-20T19:06:37.974Z,35.90
2018-02-20T19:09:04.235Z,36.77
2018-02-20T19:11:30.474Z,36.10
2018-02-20T19:13:57.431Z,40.27
2018-02-20T19:16:24.364Z,37.20
2018-02-20T19:18:51.323Z,38.37
2018-02-20T19:21:18.284Z,34.87
2018-02-20T19:23:44.568Z,36.60
2018-02-20T19:26:10.775Z,37.50
2018-02-20T19:28:37.000Z,38.37
2018-02-20T19:31:03.228Z,37.97
2018-02-20T19:33:29.461Z,32.47
2018-02-20T19:35:55.683Z,29.97
2018-02-20T19:38:21.868Z,43.57
2018-02-20T19:40:48.840Z,38.80
2018-02-20T19:43:15.037Z,41.47
2018-02-20T19:45:41.996Z,41.50
2018-02-20T19:48:08.924Z,31.37
2018-02-20T19:50:35.149Z,31.07
2018-02-20T19:53:01.337Z,32.80
2018-02-20T19:55:27.556Z,34.40
2018-02-20T19:57:53.784Z,29.37
2018-02-20T20:00:20.003Z,33.73
2018-02-20T20:02:46.252Z,30.93
2018-02-20T20:05:12.473Z,33.37
2018-02-20T20:07:38.669Z,32.40
2018-02-20T20:10:05.632Z,31.97
2018-02-20T20:12:31.819Z,30.87
2018-02-20T20:14:58.159Z,31.67
2018-02-20T20:17:24.357Z,28.73
2018-02-20T20:19:50.550Z,27.50
2018-02-20T20:22:16.808Z,30.80
2018-02-20T20:24:43.005Z,30.43
2018-02-20T20:27:09.217Z,27.50
2018-02-20T20:29:36.147Z,27.20
2018-02-20T20:32:02.373Z,29.70
2018-02-20T20:34:30.052Z,30.10
2018-02-20T20:36:57.016Z,27.37
2018-02-20T20:39:23.200Z,28.80
2018-02-20T20:41:49.412Z,25.10
2018-02-20T20:44:16.544Z,27.10
2018-02-20T20:46:42.760Z,26.47
2018-02-20T20:49:08.957Z,28.60
2018-02-20T20:51:35.922Z,27.20
2018-02-20T20:54:02.858Z,25.57
2018-02-20T20:56:29.821Z,18.60
2018-02-20T20:58:56.004Z,27.87
2018-02-20T21:01:22.252Z,23.60
2018-02-20T21:03:49.184Z,25.30
2018-02-20T21:06:15.363Z,26.43
2018-02-20T21:08:41.584Z,23.43
2018-02-20T21:11:07.764Z,26.20
2018-02-20T21:13:33.981Z,23.40
2018-02-20T21:16:00.173Z,22.50
2018-02-20T21:18:26.396Z,23.30
2018-02-20T21:20:52.673Z,20.50
2018-02-20T21:23:18.884Z,23.90
2018-02-20T21:25:45.077Z,22.17
2018-02-20T21:28:11.296Z,23.67
2018-02-20T21:30:38.232Z,19.97
2018-02-20T21:33:05.192Z,23.70
2018-02-20T21:35:32.128Z,22.07
2018-02-20T21:37:59.092Z,20.87
2018-02-20T21:40:25.288Z,18.97
2018-02-20T21:42:51.504Z,22.50
2018-02-20T21:45:17.701Z,21.37
2018-02-20T21:47:44.288Z,21.90
2018-02-20T21:50:10.479Z,20.47
2018-02-20T21:52:36.697Z,18.30
2018-02-20T21:55:02.950Z,19.10
2018-02-20T21:57:29.160Z,19.83
2018-02-20T21:59:55.420Z,20.30
2018-02-20T22:02:21.652Z,18.50
2018-02-20T22:04:48.581Z,18.03
2018-02-20T22:07:14.792Z,18.93
2018-02-20T22:09:40.972Z,15.37
2018-02-20T22:12:07.936Z,19.27
2018-02-20T22:14:34.124Z,18.77
2018-02-20T22:17:01.829Z,19.10
2018-02-20T22:19:28.020Z,18.47
2018-02-20T22:21:54.273Z,17.77
2018-02-20T22:24:21.207Z,17.03
2018-02-20T22:26:47.433Z,18.77
2018-02-20T22:29:13.625Z,17.00
2018-02-20T22:31:39.849Z,15.57
2018-02-20T22:34:06.040Z,19.87
2018-02-20T22:36:33.028Z,19.80
2018-02-20T22:38:59.229Z,18.83
2018-02-20T22:41:32.349Z,19.10
2018-02-20T22:43:58.573Z,21.53
2018-02-20T22:46:24.772Z,19.47
2018-02-20T22:48:51.000Z,19.20
2018-02-20T22:51:17.194Z,19.47
2018-02-20T22:53:43.416Z,18.17
2018-02-20T22:56:09.603Z,17.17
2018-02-20T22:58:35.815Z,18.07
2018-02-20T23:01:02.001Z,20.00
2018-02-20T23:03:28.962Z,18.27
2018-02-20T23:05:55.153Z,17.27
2018-02-20T23:08:21.372Z,17.30
2018-02-20T23:10:47.564Z,19.60
2018-02-20T23:13:14.524Z,17.40
2018-02-20T23:15:40.724Z,16.37
2018-02-20T23:18:06.940Z,19.67
2018-02-20T23:20:33.155Z,17.30
2018-02-20T23:22:59.384Z,18.43
2018-02-20T23:25:25.637Z,16.70
2018-02-20T23:27:51.837Z,16.60
2018-02-20T23:30:18.066Z,18.43
2018-02-20T23:32:44.281Z,18.10
2018-02-20T23:35:10.482Z,18.13
2018-02-20T23:37:36.683Z,18.43
2018-02-20T23:40:03.644Z,18.40
2018-02-20T23:42:30.572Z,18.73
2018-02-20T23:44:56.788Z,18.27
2018-02-20T23:47:23.719Z,16.90
2018-02-20T23:49:49.940Z,17.40
2018-02-20T23:52:16.129Z,16.00
2018-02-20T23:54:43.106Z,15.23
2018-02-20T23:57:09.288Z,20.07
2018-02-20T23:59:36.479Z,14.00
